Time;durP1;ratioP1;P1;durP2;ratioP2;P2;SDS_P1;SDS_P2;PMS_P1;PMS_P2;Temp;Humidity;BMP_temperature;BMP_pressure;BME280_temperature;BME280_humidity;BME280_pressure;Samples;Min_cycle;Max_cycle;Signal;HPM_P1;HPM_P2
2021/01/18 00:00:52;;;;;;;3.20;2.50;;;3.50;79.50;;;;;;4993151;28;20034;-65
2021/01/18 00:03:18;;;;;;;3.33;2.53;;;3.50;79.50;;;;;;4995374;28;20034;-65
2021/01/18 00:05:44;;;;;;;3.10;2.40;;;3.50;79.50;;;;;;4995952;28;20042;-65
2021/01/18 00:08:09;;;;;;;2.60;2.30;;;3.50;79.50;;;;;;4996679;28;20065;-67
2021/01/18 00:10:35;;;;;;;3.17;2.60;;;3.50;79.50;;;;;;5013625;28;20041;-65
2021/01/18 00:13:01;;;;;;;3.65;2.65;;;3.40;79.40;;;;;;5015107;28;20045;-67
2021/01/18 00:15:26;;;;;;;3.50;2.50;;;3.40;79.40;;;;;;5016595;28;20042;-65
2021/01/18 00:17:53;;;;;;;3.80;2.60;;;3.40;79.40;;;;;;5018272;28;20136;-65
2021/01/18 00:20:20;;;;;;;4.10;2.50;;;3.40;79.50;;;;;;5019779;28;20041;-65
2021/01/18 00:22:47;;;;;;;4.47;2.40;;;3.40;80.30;;;;;;5051116;28;20099;-65
2021/01/18 00:25:24;;;;;;;3.30;2.35;;;3.40;79.50;;;;;;5017667;28;20030;-65
2021/01/18 00:27:51;;;;;;;3.58;2.38;;;3.40;79.50;;;;;;5018101;28;20561;-65
2021/01/18 00:30:22;;;;;;;4.10;2.30;;;3.40;79.50;;;;;;5019112;28;20030;-62
2021/01/18 00:32:48;;;;;;;3.10;2.50;;;3.30;79.30;;;;;;5020210;28;20045;-64
2021/01/18 00:35:15;;;;;;;3.45;2.75;;;3.40;79.40;;;;;;5020568;28;20508;-63
2021/01/18 00:37:52;;;;;;;3.47;2.70;;;3.30;79.30;;;;;;5019917;28;20073;-64
2021/01/18 00:40:22;;;;;;;2.92;2.40;;;3.30;79.30;;;;;;5048914;28;20572;-64
2021/01/18 00:42:48;;;;;;;5.68;2.65;;;3.30;79.30;;;;;;5019241;28;20049;-65
2021/01/18 00:45:15;;;;;;;3.30;2.70;;;3.30;79.50;;;;;;5018124;28;20030;-65
2021/01/18 00:47:46;;;;;;;3.20;2.70;;;3.30;79.50;;;;;;5019462;28;20037;-65
2021/01/18 00:50:31;;;;;;;3.60;2.63;;;3.30;79.60;;;;;;5018995;28;20114;-65
2021/01/18 00:52:58;;;;;;;3.50;2.50;;;3.30;79.60;;;;;;5019108;28;20121;-64
2021/01/18 00:55:25;;;;;;;4.65;2.58;;;3.30;79.70;;;;;;5018819;28;20029;-65
2021/01/18 00:57:50;;;;;;;4.45;2.80;;;3.30;79.60;;;;;;5018220;28;20061;-65
2021/01/18 01:00:24;;;;;;;4.35;2.70;;;3.30;79.70;;;;;;5019844;28;20094;-65
2021/01/18 01:02:51;;;;;;;4.85;2.97;;;3.20;79.70;;;;;;5017333;28;20525;-65
2021/01/18 01:05:22;;;;;;;5.05;2.70;;;3.20;79.70;;;;;;5019247;28;20029;-65
2021/01/18 01:07:53;;;;;;;3.08;2.58;;;3.20;79.80;;;;;;5013300;28;20095;-65
2021/01/18 01:10:20;;;;;;;4.13;3.00;;;3.20;79.90;;;;;;5019096;28;20564;-65
2021/01/18 01:12:46;;;;;;;4.93;2.80;;;3.20;79.80;;;;;;5017083;28;20038;-64
2021/01/18 01:15:13;;;;;;;4.90;3.05;;;3.20;79.90;;;;;;5018162;28;20029;-65
2021/01/18 01:17:45;;;;;;;4.53;2.95;;;3.20;79.90;;;;;;5018973;28;20038;-65
2021/01/18 01:20:13;;;;;;;5.65;3.40;;;3.20;80.00;;;;;;5050639;28;20116;-64
2021/01/18 01:22:40;;;;;;;6.25;3.35;;;3.20;79.90;;;;;;5019702;28;20505;-64
2021/01/18 01:25:07;;;;;;;4.20;3.30;;;3.20;79.90;;;;;;5019491;28;20038;-66
2021/01/18 01:27:32;;;;;;;4.15;3.03;;;3.20;80.00;;;;;;5016712;28;20042;-64
2021/01/18 01:29:58;;;;;;;5.65;3.58;;;3.10;79.90;;;;;;5018253;28;20041;-65
2021/01/18 01:32:24;;;;;;;7.05;3.53;;;3.10;79.90;;;;;;5015454;28;20497;-65
2021/01/18 01:34:49;;;;;;;6.07;3.40;;;3.10;80.00;;;;;;5019888;28;20028;-65
2021/01/18 01:37:15;;;;;;;4.05;3.30;;;3.10;80.10;;;;;;5017668;28;20030;-64
2021/01/18 01:39:41;;;;;;;5.38;3.80;;;3.10;80.20;;;;;;5017266;28;20500;-65
2021/01/18 01:42:17;;;;;;;5.72;3.50;;;3.10;80.20;;;;;;5018324;28;20120;-65
2021/01/18 01:44:43;;;;;;;4.80;3.88;;;3.10;80.30;;;;;;5016482;28;20573;-67
2021/01/18 01:47:09;;;;;;;7.10;4.15;;;3.10;80.20;;;;;;5017162;28;20795;-65
2021/01/18 01:49:35;;;;;;;4.68;3.65;;;3.10;80.20;;;;;;5018601;28;20061;-65
2021/01/18 01:52:03;;;;;;;4.72;3.67;;;3.10;80.20;;;;;;5004306;28;20123;-65
2021/01/18 01:54:31;;;;;;;4.72;3.70;;;3.10;80.20;;;;;;5001359;28;20036;-66
2021/01/18 01:56:58;;;;;;;4.90;3.78;;;3.10;80.10;;;;;;5011649;28;20450;-65
2021/01/18 01:59:23;;;;;;;6.03;3.70;;;3.10;80.10;;;;;;4998298;28;20382;-65
2021/01/18 02:01:49;;;;;;;5.80;3.85;;;3.10;80.10;;;;;;4999645;28;20045;-67
2021/01/18 02:04:16;;;;;;;5.20;3.70;;;3.10;80.10;;;;;;4999771;28;20033;-65
2021/01/18 02:06:41;;;;;;;5.68;3.95;;;3.10;80.10;;;;;;4998541;28;20069;-62
2021/01/18 02:09:07;;;;;;;6.45;4.28;;;3.10;80.10;;;;;;4998176;28;20509;-64
2021/01/18 02:11:33;;;;;;;6.57;3.70;;;3.10;80.20;;;;;;4996148;28;20155;-66
2021/01/18 02:14:13;;;;;;;6.88;4.05;;;3.10;80.20;;;;;;4997891;28;20045;-63
2021/01/18 02:16:54;;;;;;;5.68;4.15;;;3.10;80.20;;;;;;4997772;28;20034;-65
2021/01/18 02:19:51;;;;;;;6.03;4.30;;;3.10;80.20;;;;;;5030488;28;20581;-65
2021/01/18 02:22:52;;;;;;;5.10;3.50;;;3.10;80.30;;;;;;4999890;28;20057;-66
2021/01/18 02:25:35;;;;;;;5.88;4.05;;;3.10;80.20;;;;;;5023990;28;20045;-64
2021/01/18 02:28:27;;;;;;;6.93;4.43;;;3.10;80.20;;;;;;5016817;28;20038;-65
2021/01/18 02:31:23;;;;;;;6.65;4.28;;;3.10;80.30;;;;;;5016369;28;20036;-63
2021/01/18 02:34:10;;;;;;;7.28;4.78;;;3.10;80.40;;;;;;5019526;28;20124;-65
2021/01/18 02:37:13;;;;;;;6.55;4.57;;;3.10;80.40;;;;;;5017113;28;20064;-65
2021/01/18 02:39:56;;;;;;;7.32;4.72;;;3.10;80.40;;;;;;5015745;28;20060;-65
2021/01/18 02:42:29;;;;;;;8.60;4.80;;;3.10;80.30;;;;;;5014855;28;20746;-65
2021/01/18 02:44:58;;;;;;;6.33;4.43;;;3.10;80.30;;;;;;5018124;28;20033;-65
2021/01/18 02:47:29;;;;;;;7.20;4.40;;;3.10;80.30;;;;;;5017404;28;20339;-65
2021/01/18 02:49:58;;;;;;;8.35;5.18;;;3.10;80.30;;;;;;5017243;28;20033;-65
2021/01/18 02:52:23;;;;;;;7.75;4.65;;;3.10;80.40;;;;;;5017920;28;20057;-66
2021/01/18 02:54:49;;;;;;;8.07;4.88;;;3.10;80.40;;;;;;5021431;28;20839;-66
2021/01/18 02:57:17;;;;;;;8.45;5.38;;;3.10;80.50;;;;;;5014680;28;20029;-64
2021/01/18 02:59:43;;;;;;;10.70;5.30;;;3.10;80.50;;;;;;5018052;28;20133;-65
2021/01/18 03:02:17;;;;;;;7.57;4.65;;;3.10;80.50;;;;;;5018278;28;21432;-64
2021/01/18 03:05:07;;;;;;;7.17;5.07;;;3.10;80.60;;;;;;5015593;28;20479;-64
2021/01/18 03:07:58;;;;;;;8.68;4.70;;;3.10;80.60;;;;;;5016164;28;20061;-65
2021/01/18 03:10:46;;;;;;;8.73;5.40;;;3.10;80.60;;;;;;5042821;28;20037;-66
2021/01/18 03:13:18;;;;;;;6.95;4.90;;;3.10;80.70;;;;;;5028631;28;20033;-65
2021/01/18 03:15:47;;;;;;;6.53;4.78;;;3.10;80.60;;;;;;5009521;28;20610;-66
2021/01/18 03:18:22;;;;;;;8.30;5.30;;;3.10;80.50;;;;;;5014831;28;20593;-65
2021/01/18 03:20:49;;;;;;;9.32;5.40;;;3.10;80.70;;;;;;5016914;28;20132;-65
2021/01/18 03:23:14;;;;;;;7.45;4.72;;;3.10;80.70;;;;;;5018478;28;20034;-64
2021/01/18 03:25:52;;;;;;;7.25;4.80;;;3.00;80.60;;;;;;5017173;28;20049;-64
2021/01/18 03:28:20;;;;;;;7.75;4.90;;;3.20;80.90;;;;;;5015742;28;20071;-64
2021/01/18 03:30:46;;;;;;;9.45;5.38;;;3.00;80.70;;;;;;5017025;28;20805;-65
2021/01/18 03:33:12;;;;;;;7.00;4.78;;;3.00;80.80;;;;;;5017489;28;20089;-66
2021/01/18 03:35:37;;;;;;;6.85;4.50;;;3.00;80.80;;;;;;5016018;28;20057;-65
2021/01/18 03:38:03;;;;;;;6.85;4.75;;;3.00;80.70;;;;;;5016517;28;20033;-65
2021/01/18 03:40:29;;;;;;;7.75;4.80;;;3.00;80.80;;;;;;5015066;28;20041;-65
2021/01/18 03:43:00;;;;;;;8.02;5.10;;;3.00;80.70;;;;;;5019575;28;20045;-65
2021/01/18 03:45:34;;;;;;;7.32;5.10;;;3.00;80.70;;;;;;5015137;28;20630;-65
2021/01/18 03:48:00;;;;;;;8.50;5.17;;;3.10;80.90;;;;;;5014888;28;20445;-65
2021/01/18 03:50:25;;;;;;;10.50;5.28;;;3.00;80.70;;;;;;5015857;28;20273;-66
2021/01/18 03:52:52;;;;;;;8.43;5.05;;;3.00;80.70;;;;;;5018392;28;20054;-65
2021/01/18 03:55:19;;;;;;;8.40;5.25;;;3.00;80.80;;;;;;5019824;28;20037;-64
2021/01/18 03:57:46;;;;;;;13.15;7.50;;;3.00;80.80;;;;;;5019951;28;20495;-65
2021/01/18 04:00:13;;;;;;;35.05;13.20;;;3.00;80.80;;;;;;5019661;28;20433;-65
2021/01/18 04:02:40;;;;;;;10.77;6.80;;;3.00;80.80;;;;;;5019876;28;20034;-64
2021/01/18 04:05:06;;;;;;;12.07;6.32;;;3.00;80.90;;;;;;5019629;28;20648;-65
2021/01/18 04:07:32;;;;;;;10.23;6.60;;;3.00;80.90;;;;;;5019763;28;20383;-65
2021/01/18 04:09:57;;;;;;;10.40;6.78;;;3.10;80.90;;;;;;5019474;28;20036;-64
2021/01/18 04:12:23;;;;;;;8.73;6.15;;;3.00;80.90;;;;;;5003746;28;20124;-65
2021/01/18 04:14:52;;;;;;;9.07;6.45;;;3.00;80.90;;;;;;5006050;28;20034;-65
2021/01/18 04:17:17;;;;;;;10.00;6.05;;;3.00;80.90;;;;;;5009031;28;20703;-64
2021/01/18 04:19:43;;;;;;;10.10;6.18;;;3.10;80.90;;;;;;4998442;28;20124;-65
2021/01/18 04:22:09;;;;;;;10.18;6.00;;;3.10;80.90;;;;;;5001133;28;21328;-64
2021/01/18 04:24:36;;;;;;;11.43;7.10;;;3.00;80.80;;;;;;5000839;28;20034;-65
2021/01/18 04:27:02;;;;;;;11.65;7.22;;;3.00;80.90;;;;;;4999115;28;20045;-64
2021/01/18 04:29:28;;;;;;;10.15;6.35;;;3.00;80.80;;;;;;5001310;28;20091;-65
2021/01/18 04:31:54;;;;;;;11.15;7.13;;;3.00;80.80;;;;;;4997795;28;20453;-64
2021/01/18 04:34:20;;;;;;;12.60;6.78;;;3.10;80.90;;;;;;4999595;28;20046;-64
2021/01/18 04:36:45;;;;;;;12.48;6.85;;;3.10;80.90;;;;;;4997146;28;20401;-64
2021/01/18 04:39:12;;;;;;;10.60;6.85;;;3.00;80.80;;;;;;4996827;28;20099;-65
2021/01/18 04:41:43;;;;;;;9.30;6.50;;;3.10;80.90;;;;;;4997070;28;20042;-64
2021/01/18 04:44:10;;;;;;;10.27;6.72;;;3.10;81.00;;;;;;4998959;28;20061;-65
2021/01/18 04:46:41;;;;;;;10.52;7.20;;;3.10;81.80;;;;;;4997435;28;20037;-65
2021/01/18 04:49:08;;;;;;;12.38;7.03;;;3.10;81.00;;;;;;4997076;28;20177;-64
2021/01/18 04:51:40;;;;;;;13.57;7.75;;;3.00;80.90;;;;;;4998891;28;20038;-65
2021/01/18 04:54:11;;;;;;;10.23;7.18;;;3.00;81.10;;;;;;4998403;28;20573;-66
2021/01/18 04:56:57;;;;;;;13.40;7.90;;;3.00;81.00;;;;;;5000979;28;20887;-65
2021/01/18 04:59:29;;;;;;;10.55;7.15;;;3.00;81.10;;;;;;5010942;28;20034;-66
2021/01/18 05:02:23;;;;;;;10.63;7.28;;;3.00;81.10;;;;;;5008116;28;20571;-66
2021/01/18 05:04:51;;;;;;;10.87;6.90;;;3.00;81.20;;;;;;5014661;28;20049;-64
2021/01/18 05:07:32;;;;;;;10.70;6.97;;;3.00;81.10;;;;;;5019002;28;20052;-65
2021/01/18 05:10:04;;;;;;;10.07;5.75;;;3.00;81.20;;;;;;5020202;28;20034;-66
2021/01/18 05:12:31;;;;;;;10.93;5.93;;;3.00;81.30;;;;;;5017371;28;20045;-65
2021/01/18 05:14:58;;;;;;;9.45;5.60;;;3.00;81.30;;;;;;5017690;28;20032;-64
2021/01/18 05:17:45;;;;;;;9.25;5.68;;;3.00;81.40;;;;;;5020291;28;20164;-64
2021/01/18 05:20:14;;;;;;;8.57;5.70;;;3.00;81.60;;;;;;5019150;28;20057;-65
2021/01/18 05:22:47;;;;;;;8.20;5.78;;;3.00;81.40;;;;;;5019713;28;20037;-65
2021/01/18 05:25:14;;;;;;;9.68;5.95;;;3.00;81.50;;;;;;5020237;28;20030;-65
2021/01/18 05:28:04;;;;;;;8.95;6.25;;;3.00;81.40;;;;;;5015837;28;20026;-66
2021/01/18 05:30:41;;;;;;;10.00;6.00;;;3.10;81.50;;;;;;5008321;28;20030;-66
2021/01/18 05:33:10;;;;;;;8.52;5.50;;;3.10;81.40;;;;;;5016181;28;20047;-66
2021/01/18 05:35:41;;;;;;;8.55;5.57;;;3.10;81.30;;;;;;5016219;28;20053;-64
2021/01/18 05:38:12;;;;;;;8.13;5.38;;;3.10;81.30;;;;;;5017506;28;20377;-65
2021/01/18 05:40:49;;;;;;;9.32;5.40;;;3.00;81.20;;;;;;5045143;28;20177;-64
2021/01/18 05:43:16;;;;;;;10.38;5.60;;;3.10;81.30;;;;;;5017029;28;20045;-65
2021/01/18 05:45:44;;;;;;;9.55;5.35;;;3.10;81.20;;;;;;5016316;28;20885;-65
2021/01/18 05:48:12;;;;;;;7.53;4.90;;;3.10;81.10;;;;;;5019197;28;20635;-66
2021/01/18 05:50:39;;;;;;;8.50;4.90;;;3.00;81.10;;;;;;5018836;28;20105;-67
2021/01/18 05:53:26;;;;;;;8.85;5.05;;;3.10;81.10;;;;;;5018995;28;20025;-67
2021/01/18 05:55:52;;;;;;;10.15;5.68;;;3.10;81.20;;;;;;5019160;28;20030;-65
2021/01/18 05:58:32;;;;;;;14.23;7.72;;;3.10;81.10;;;;;;5017796;28;20707;-65
2021/01/18 06:01:01;;;;;;;15.45;8.50;;;3.10;81.10;;;;;;5018391;28;20048;-65
2021/01/18 06:03:31;;;;;;;19.10;7.40;;;3.10;81.10;;;;;;5019709;28;20044;-66
2021/01/18 06:05:57;;;;;;;18.08;7.50;;;3.20;81.10;;;;;;5019117;28;20062;-65
2021/01/18 06:08:24;;;;;;;23.52;10.73;;;3.20;81.00;;;;;;5017831;28;20030;-66
2021/01/18 06:10:57;;;;;;;18.58;8.65;;;3.20;80.90;;;;;;5016543;28;20033;-65
2021/01/18 06:13:27;;;;;;;18.92;9.05;;;3.20;80.90;;;;;;5018900;28;20572;-66
2021/01/18 06:16:10;;;;;;;16.38;8.07;;;3.20;80.70;;;;;;5017882;28;20030;-67
2021/01/18 06:18:39;;;;;;;10.70;5.40;;;3.30;80.80;;;;;;5018765;28;20033;-65
2021/01/18 06:21:09;;;;;;;9.20;5.20;;;3.30;80.70;;;;;;5018642;28;20034;-64
2021/01/18 06:23:34;;;;;;;8.27;4.63;;;3.30;80.60;;;;;;5019970;28;20038;-65
2021/01/18 06:26:01;;;;;;;10.18;4.90;;;3.30;80.60;;;;;;5018944;28;20575;-66
2021/01/18 06:28:38;;;;;;;8.68;4.95;;;3.30;80.50;;;;;;5016730;28;20519;-65
2021/01/18 06:31:08;;;;;;;10.70;4.97;;;3.40;80.40;;;;;;5018137;28;20116;-65
2021/01/18 06:33:45;;;;;;;10.07;4.97;;;3.30;80.20;;;;;;5017084;28;20034;-67
2021/01/18 06:36:22;;;;;;;8.77;5.00;;;3.30;80.30;;;;;;5019481;28;20324;-65
2021/01/18 06:38:58;;;;;;;7.47;4.88;;;3.30;80.20;;;;;;5017709;28;20036;-66
2021/01/18 06:41:27;;;;;;;7.47;3.92;;;3.30;80.20;;;;;;5018425;28;20076;-64
2021/01/18 06:43:53;;;;;;;7.50;4.65;;;3.30;80.20;;;;;;5019271;28;20134;-66
2021/01/18 06:46:23;;;;;;;7.15;4.35;;;3.30;81.10;;;;;;5016139;28;20179;-67
2021/01/18 06:48:50;;;;;;;7.22;4.55;;;3.30;80.20;;;;;;5023979;28;20030;-65
2021/01/18 06:51:19;;;;;;;8.32;4.57;;;3.30;80.20;;;;;;5018783;28;20029;-66
2021/01/18 06:53:47;;;;;;;8.25;4.97;;;3.30;80.20;;;;;;5018113;28;20041;-66
2021/01/18 06:56:21;;;;;;;9.00;5.60;;;3.30;80.20;;;;;;5012970;28;20409;-65
2021/01/18 06:59:15;;;;;;;8.35;5.10;;;3.30;80.10;;;;;;5013423;28;20443;-65
2021/01/18 07:01:46;;;;;;;8.57;5.45;;;3.30;80.20;;;;;;5047609;28;20162;-65
2021/01/18 07:04:14;;;;;;;9.55;5.65;;;3.20;80.00;;;;;;5017628;28;20091;-65
2021/01/18 07:06:41;;;;;;;8.40;5.43;;;3.20;80.00;;;;;;5018462;28;22464;-67
2021/01/18 07:09:14;;;;;;;10.02;5.65;;;3.20;80.10;;;;;;5016770;28;20402;-65
2021/01/18 07:11:41;;;;;;;9.40;5.35;;;3.10;80.00;;;;;;5017434;28;20038;-64
2021/01/18 07:14:08;;;;;;;11.45;5.88;;;3.20;80.20;;;;;;5017991;28;20030;-65
2021/01/18 07:16:34;;;;;;;10.52;6.15;;;3.10;80.20;;;;;;5016792;28;20041;-65
2021/01/18 07:19:03;;;;;;;12.75;6.47;;;3.10;80.20;;;;;;5018431;28;20447;-68
2021/01/18 07:21:35;;;;;;;10.60;6.35;;;3.10;80.20;;;;;;5015169;28;20050;-65
2021/01/18 07:24:01;;;;;;;13.18;6.75;;;3.10;80.30;;;;;;5018595;28;20413;-65
2021/01/18 07:26:51;;;;;;;14.80;8.10;;;3.10;81.10;;;;;;5016783;28;20042;-66
2021/01/18 07:29:19;;;;;;;26.85;11.90;;;3.10;80.40;;;;;;5016285;28;20029;-66
2021/01/18 07:31:48;;;;;;;20.30;10.23;;;3.10;80.40;;;;;;5017815;28;20116;-65
2021/01/18 07:34:15;;;;;;;12.68;6.97;;;3.10;80.40;;;;;;5017393;28;20030;-66
2021/01/18 07:36:42;;;;;;;10.40;5.90;;;3.10;81.20;;;;;;5017197;28;20033;-65
2021/01/18 07:39:31;;;;;;;13.60;6.95;;;3.10;80.40;;;;;;5048705;28;20029;-66
2021/01/18 07:41:57;;;;;;;9.57;5.80;;;3.10;80.50;;;;;;5015688;28;20649;-66
2021/01/18 07:44:38;;;;;;;12.35;6.60;;;3.10;80.40;;;;;;5018317;28;20120;-66
2021/01/18 07:47:08;;;;;;;12.32;6.60;;;3.20;80.40;;;;;;5016682;28;20052;-65
2021/01/18 07:49:41;;;;;;;14.45;6.50;;;3.20;80.20;;;;;;5017104;28;20037;-65
2021/01/18 07:52:28;;;;;;;13.10;6.55;;;3.20;80.20;;;;;;5017259;28;20116;-64
2021/01/18 07:54:55;;;;;;;10.68;5.90;;;3.20;80.00;;;;;;5018295;28;20308;-66
2021/01/18 07:57:32;;;;;;;12.95;5.53;;;3.20;80.10;;;;;;5017403;28;20587;-65
2021/01/18 08:00:16;;;;;;;10.70;5.53;;;3.20;80.00;;;;;;5017581;28;20125;-65
2021/01/18 08:02:43;;;;;;;10.48;5.90;;;3.20;79.90;;;;;;5008603;28;20038;-66
2021/01/18 08:05:29;;;;;;;9.35;5.63;;;3.20;80.00;;;;;;5017353;28;20038;-64
2021/01/18 08:08:07;;;;;;;8.80;5.57;;;3.20;79.70;;;;;;5020164;28;20497;-66
2021/01/18 08:11:04;;;;;;;14.57;7.85;;;3.20;79.70;;;;;;5015515;28;20079;-66
2021/01/18 08:13:49;;;;;;;27.77;10.90;;;3.20;79.70;;;;;;5012521;28;20040;-65
2021/01/18 08:16:14;;;;;;;;;;;3.20;79.70;;;;;;5011237;28;20048;-66
2021/01/18 08:18:54;;;;;;;21.35;11.63;;;3.20;80.50;;;;;;5013317;28;19921;-65
2021/01/18 08:21:35;;;;;;;10.93;6.18;;;3.20;79.60;;;;;;5016009;28;20049;-64
2021/01/18 08:24:04;;;;;;;10.25;6.75;;;3.30;79.50;;;;;;5016358;28;20410;-68
2021/01/18 08:26:49;;;;;;;9.75;5.88;;;3.30;79.50;;;;;;5016869;28;20042;-64
2021/01/18 08:29:46;;;;;;;9.32;5.15;;;3.30;79.30;;;;;;5015784;28;20405;-65
2021/01/18 08:32:24;;;;;;;13.07;5.07;;;3.30;79.20;;;;;;5013801;28;20044;-66
2021/01/18 08:35:01;;;;;;;9.52;4.95;;;3.30;79.20;;;;;;5017177;28;20049;-67
2021/01/18 08:37:28;;;;;;;9.73;5.70;;;3.30;79.30;;;;;;5017082;28;20143;-67
2021/01/18 08:39:56;;;;;;;9.68;5.55;;;3.30;79.40;;;;;;5019196;28;20060;-65
2021/01/18 08:42:33;;;;;;;10.90;5.68;;;3.30;79.30;;;;;;5019209;28;20041;-67
2021/01/18 08:45:20;;;;;;;11.38;5.72;;;3.30;79.00;;;;;;5020215;28;20606;-65
2021/01/18 08:47:55;;;;;;;10.07;5.45;;;3.40;79.10;;;;;;5020844;28;20512;-65
2021/01/18 08:50:29;;;;;;;;;;;3.40;79.00;;;;;;5019678;28;20053;-65
2021/01/18 08:53:01;;;;;;;19.98;8.80;;;3.40;78.80;;;;;;5019324;28;19917;-66
2021/01/18 08:55:29;;;;;;;12.00;6.90;;;3.40;78.90;;;;;;5019274;28;20117;-66
2021/01/18 08:57:57;;;;;;;11.05;6.80;;;3.40;78.90;;;;;;5018997;28;20029;-67
2021/01/18 09:00:22;;;;;;;12.57;6.20;;;3.50;79.00;;;;;;5020215;28;20072;-66
2021/01/18 09:02:49;;;;;;;9.65;5.65;;;3.50;79.00;;;;;;5019360;28;20037;-65
2021/01/18 09:05:19;;;;;;;11.23;5.10;;;3.50;79.10;;;;;;5019273;28;20531;-65
2021/01/18 09:07:46;;;;;;;9.85;4.93;;;3.50;78.90;;;;;;5020422;28;20040;-65
2021/01/18 09:10:13;;;;;;;10.02;4.95;;;3.60;78.80;;;;;;5018736;28;20615;-67
2021/01/18 09:12:41;;;;;;;9.55;4.80;;;3.60;78.80;;;;;;5014639;28;20026;-66
2021/01/18 09:15:08;;;;;;;6.18;4.82;;;3.70;78.60;;;;;;5017906;28;20032;-65
2021/01/18 09:17:34;;;;;;;7.50;4.43;;;3.70;78.50;;;;;;5018771;28;20026;-66
2021/01/18 09:20:07;;;;;;;7.97;4.50;;;3.70;78.50;;;;;;5019422;28;20576;-68
2021/01/18 09:22:36;;;;;;;5.53;4.05;;;3.80;78.30;;;;;;5019534;28;20045;-65
2021/01/18 09:25:04;;;;;;;7.65;4.65;;;3.80;79.00;;;;;;5018634;28;20034;-66
2021/01/18 09:27:32;;;;;;;9.35;4.93;;;3.80;79.00;;;;;;5018496;28;20044;-67
2021/01/18 09:29:59;;;;;;;8.63;4.63;;;3.80;78.10;;;;;;5018112;28;20574;-65
2021/01/18 09:32:25;;;;;;;7.05;4.72;;;3.90;78.10;;;;;;5016395;28;20042;-67
2021/01/18 09:35:11;;;;;;;9.10;5.25;;;3.90;78.00;;;;;;5020488;28;20087;-65
2021/01/18 09:37:45;;;;;;;9.38;6.03;;;3.90;77.90;;;;;;5024872;28;20116;-66
2021/01/18 09:40:11;;;;;;;11.38;7.03;;;3.90;77.90;;;;;;5019946;28;20026;-66
2021/01/18 09:42:38;;;;;;;10.57;7.20;;;3.90;78.00;;;;;;5018883;28;20451;-66
2021/01/18 09:45:08;;;;;;;10.85;7.13;;;4.00;78.10;;;;;;5018624;28;20493;-67
2021/01/18 09:47:35;;;;;;;10.88;7.60;;;4.00;77.80;;;;;;5019264;28;20560;-66
2021/01/18 09:50:15;;;;;;;8.10;5.07;;;4.10;77.80;;;;;;5023765;28;20125;-69
2021/01/18 09:52:52;;;;;;;7.40;4.57;;;4.10;77.40;;;;;;5016586;28;20053;-67
2021/01/18 09:55:19;;;;;;;9.38;4.38;;;4.00;77.10;;;;;;5018306;28;20117;-66
2021/01/18 09:58:08;;;;;;;9.45;4.72;;;4.10;77.60;;;;;;5032829;28;20018;-68
2021/01/18 10:00:37;;;;;;;7.72;5.00;;;4.10;77.00;;;;;;5032436;28;20037;-66
2021/01/18 10:03:03;;;;;;;11.57;6.32;;;4.10;77.30;;;;;;5017839;28;20030;-66
2021/01/18 10:05:40;;;;;;;14.48;8.13;;;4.10;77.30;;;;;;5019700;28;20555;-67
2021/01/18 10:08:16;;;;;;;9.52;6.45;;;4.20;77.10;;;;;;5018446;28;20034;-66
2021/01/18 10:10:47;;;;;;;8.80;5.47;;;4.10;77.30;;;;;;5016599;28;20438;-67
2021/01/18 10:13:25;;;;;;;8.55;5.50;;;4.10;77.30;;;;;;5018333;28;20030;-66
2021/01/18 10:15:52;;;;;;;9.48;5.22;;;4.20;77.30;;;;;;5049900;28;20030;-66
2021/01/18 10:18:31;;;;;;;9.95;5.88;;;4.10;77.30;;;;;;5019016;28;20111;-67
2021/01/18 10:20:57;;;;;;;11.32;6.53;;;4.20;77.20;;;;;;5017344;28;20103;-66
2021/01/18 10:23:23;;;;;;;9.48;6.35;;;4.20;77.40;;;;;;5016438;28;20038;-66
2021/01/18 10:25:49;;;;;;;7.72;5.57;;;4.20;77.40;;;;;;5018775;28;20033;-69
2021/01/18 10:28:19;;;;;;;9.85;5.15;;;4.30;77.40;;;;;;5017728;28;20038;-66
2021/01/18 10:30:45;;;;;;;8.30;4.68;;;4.30;77.40;;;;;;5017904;28;20047;-66
2021/01/18 10:33:16;;;;;;;8.00;4.88;;;4.30;77.40;;;;;;5016259;28;20025;-65
2021/01/18 10:35:42;;;;;;;8.30;4.53;;;4.30;77.30;;;;;;5046311;28;20072;-66
2021/01/18 10:38:20;;;;;;;9.48;4.50;;;4.40;77.40;;;;;;5014004;28;20025;-68
2021/01/18 10:41:05;;;;;;;6.43;3.97;;;4.30;76.70;;;;;;5016617;28;20042;-66
2021/01/18 10:43:31;;;;;;;7.07;3.75;;;4.40;76.50;;;;;;5017368;28;20033;-65
2021/01/18 10:45:59;;;;;;;7.55;4.25;;;4.40;76.90;;;;;;5017617;28;20125;-66
2021/01/18 10:48:32;;;;;;;7.47;4.13;;;4.40;76.90;;;;;;5017499;28;20176;-70
2021/01/18 10:51:03;;;;;;;7.57;4.00;;;4.40;76.70;;;;;;5017070;28;20030;-67
2021/01/18 10:53:33;;;;;;;8.93;4.35;;;4.40;76.80;;;;;;5018103;28;20426;-68
2021/01/18 10:56:15;;;;;;;6.18;4.20;;;4.40;76.80;;;;;;5019215;28;20041;-67
2021/01/18 10:58:42;;;;;;;5.80;3.85;;;4.40;76.60;;;;;;5017097;28;20052;-66
2021/01/18 11:01:10;;;;;;;7.80;4.35;;;4.50;76.70;;;;;;5016281;28;20492;-67
2021/01/18 11:03:37;;;;;;;7.20;3.60;;;4.50;76.70;;;;;;5017958;28;20572;-66
2021/01/18 11:06:14;;;;;;;5.38;3.55;;;4.50;76.70;;;;;;5018240;28;20599;-67
2021/01/18 11:08:40;;;;;;;6.65;3.80;;;4.50;76.40;;;;;;5017052;28;20042;-66
2021/01/18 11:11:24;;;;;;;6.90;4.05;;;4.60;76.60;;;;;;5017710;28;20029;-67
2021/01/18 11:14:06;;;;;;;7.03;4.03;;;4.60;75.90;;;;;;5017450;28;20045;-66
2021/01/18 11:16:31;;;;;;;5.22;3.63;;;4.60;75.90;;;;;;5017279;28;20042;-66
2021/01/18 11:19:02;;;;;;;5.20;3.83;;;4.60;75.90;;;;;;5017333;28;20509;-69
2021/01/18 11:21:28;;;;;;;6.10;3.78;;;4.60;75.80;;;;;;5018259;28;20042;-66
2021/01/18 11:23:57;;;;;;;5.35;3.97;;;4.60;76.10;;;;;;5018182;28;20034;-67
2021/01/18 11:26:25;;;;;;;6.15;3.83;;;4.60;76.00;;;;;;5024137;28;20110;-66
2021/01/18 11:28:51;;;;;;;6.63;3.42;;;4.60;75.90;;;;;;5017438;28;20021;-67
2021/01/18 11:31:17;;;;;;;5.57;3.80;;;4.60;76.10;;;;;;5018666;28;20111;-67
2021/01/18 11:33:46;;;;;;;5.93;3.55;;;4.60;76.00;;;;;;5014763;28;20033;-66
2021/01/18 11:36:12;;;;;;;6.72;4.00;;;4.60;76.00;;;;;;5016565;28;20041;-67
2021/01/18 11:38:41;;;;;;;6.18;3.55;;;4.60;76.00;;;;;;5014477;28;20036;-69
2021/01/18 11:41:06;;;;;;;7.95;3.90;;;4.60;75.90;;;;;;5020577;28;20037;-66
2021/01/18 11:43:33;;;;;;;5.93;4.07;;;4.60;76.00;;;;;;5018439;28;20602;-67
2021/01/18 11:46:00;;;;;;;7.55;3.70;;;4.60;76.00;;;;;;5017916;28;20034;-66
2021/01/18 11:48:25;;;;;;;6.30;4.05;;;4.60;76.00;;;;;;5017259;28;20116;-66
2021/01/18 11:50:51;;;;;;;5.25;3.78;;;4.60;75.70;;;;;;5016682;28;20124;-65
2021/01/18 11:53:20;;;;;;;6.18;4.07;;;4.60;75.30;;;;;;5017105;28;20033;-68
2021/01/18 11:55:50;;;;;;;7.65;4.38;;;4.60;75.50;;;;;;5018109;28;20041;-69
2021/01/18 11:58:15;;;;;;;6.70;4.10;;;4.60;75.30;;;;;;5016228;28;20041;-68
2021/01/18 12:00:41;;;;;;;8.30;4.30;;;4.60;75.50;;;;;;5014080;28;20067;-67
2021/01/18 12:03:07;;;;;;;8.95;4.25;;;4.60;75.70;;;;;;5017746;28;20044;-68
2021/01/18 12:05:33;;;;;;;5.80;4.20;;;4.60;75.70;;;;;;5013968;28;20072;-65
2021/01/18 12:08:02;;;;;;;5.28;3.65;;;4.60;75.60;;;;;;5015327;28;20030;-65
2021/01/18 12:10:34;;;;;;;7.97;3.83;;;4.50;75.20;;;;;;5046889;28;20030;-65
2021/01/18 12:13:01;;;;;;;5.97;3.83;;;4.50;75.30;;;;;;5017690;28;20543;-69
2021/01/18 12:15:26;;;;;;;6.65;4.50;;;4.50;76.10;;;;;;5020093;28;20037;-69
2021/01/18 12:17:52;;;;;;;7.43;5.03;;;4.40;75.70;;;;;;5017611;28;20160;-67
2021/01/18 12:20:20;;;;;;;7.20;4.03;;;4.50;76.60;;;;;;5020905;28;20033;-67
2021/01/18 12:22:46;;;;;;;7.15;4.40;;;4.40;75.60;;;;;;5020123;28;20409;-67
2021/01/18 12:25:13;;;;;;;6.95;4.18;;;4.40;75.60;;;;;;5020703;28;20099;-67
2021/01/18 12:27:39;;;;;;;7.95;4.30;;;4.40;75.50;;;;;;5020196;28;20037;-67
2021/01/18 12:30:06;;;;;;;5.63;3.92;;;4.40;75.70;;;;;;5020174;28;20062;-66
2021/01/18 12:32:32;;;;;;;6.65;3.80;;;4.40;75.90;;;;;;5020806;28;20084;-67
2021/01/18 12:34:58;;;;;;;5.40;3.83;;;4.40;75.70;;;;;;5021484;28;20513;-68
2021/01/18 12:37:23;;;;;;;7.65;3.85;;;4.40;75.70;;;;;;5020286;28;20485;-67
2021/01/18 12:39:49;;;;;;;5.05;3.80;;;4.40;75.70;;;;;;5020479;28;20026;-67
2021/01/18 12:42:15;;;;;;;8.02;4.05;;;4.30;75.90;;;;;;5030376;28;20124;-66
2021/01/18 12:44:40;;;;;;;5.53;3.72;;;4.40;75.90;;;;;;5019411;28;20041;-69
2021/01/18 12:47:07;;;;;;;7.78;4.47;;;4.30;75.90;;;;;;5020281;28;20045;-67
2021/01/18 12:49:32;;;;;;;6.43;3.83;;;4.40;75.90;;;;;;5020072;28;20512;-66
2021/01/18 12:51:59;;;;;;;7.30;4.15;;;4.40;76.00;;;;;;5021363;28;20042;-66
2021/01/18 12:54:24;;;;;;;6.43;4.10;;;4.40;76.10;;;;;;5020253;28;20038;-66
2021/01/18 12:56:56;;;;;;;5.95;3.63;;;4.40;76.20;;;;;;5020052;28;20088;-70
2021/01/18 12:59:22;;;;;;;7.32;4.40;;;4.40;76.10;;;;;;5013347;28;20516;-68
2021/01/18 13:01:48;;;;;;;5.75;3.92;;;4.40;76.10;;;;;;5017227;28;20044;-66
2021/01/18 13:04:14;;;;;;;6.65;3.88;;;4.40;76.10;;;;;;5020270;28;20034;-66
2021/01/18 13:06:42;;;;;;;6.25;4.05;;;4.40;76.90;;;;;;5020148;28;20498;-65
2021/01/18 13:09:16;;;;;;;5.95;3.65;;;4.40;76.00;;;;;;5019745;28;20021;-66
2021/01/18 13:11:47;;;;;;;5.30;3.90;;;4.30;75.90;;;;;;5019510;28;20036;-65
2021/01/18 13:14:17;;;;;;;6.07;4.18;;;4.30;75.90;;;;;;5017699;28;20053;-68